SNY weather

Santa Anita del Yaqui Airport
Cajeme, Sonora, Mexico

Public forecast

Using degrees Celsius for public forecast. Weather courtesy of forecast.io.

Closest aviation weather report (METAR) to Santa Anita del Yaqui Airport

Closest report is Ciudad Obregón International Airport, 5.4 nm (10.1 km) NNE. Retrieved 2019/12/08 01:49 UTC (55 minutes ago):

MMCN 080149Z 23003KT 10SM FEW200 19/14 A2999 RMK 8/008 HZY

Closest aviation forecast (TAF) to Santa Anita del Yaqui Airport

Forecast is more than 6 hours old.

Closest forecast is Ciudad Obregón International Airport, 5.4 nm (10.1 km) NNE. Retrieved 2019/12/07 18:24 UTC (8 hours ago):

TAF MMCN 071622Z 0718/0818 30010KT P6SM SCT250 FM080400 00000KT P6SM SCT250 FM081600 16006KT P6SM SCT250